Flight Track Log - Related Links

Times and Time Zones

All times are in EDT time to prevent confusion due to time zone crossing. See the WEW1540 flight status page for this flight to view local times or setup timezone preferences in your user account.

Time Position Orientation Groundspeed Altitude Reporting Facility
EDT Latitude Longitude Course Direction KTS MPH feet Rate Location/Type
Fri 08:08:29 AM 50.4000 -104.6667 180° South 60 69 2,000  Level Winnipeg Center
Fri 08:09:29 AM 50.3833 -104.6667 180° South 100 115 3,300 1,100 Climbing Winnipeg Center
Fri 08:10:29 AM 50.3667 -104.6833 213° Southwest 90 104 4,200 900 Climbing Winnipeg Center
Fri 08:11:29 AM 50.3667 -104.7167 270° West 110 127 5,100 900 Climbing Winnipeg Center
Fri 08:12:29 AM 50.3667 -104.7667 270° West 120 138 6,000 450 Climbing Winnipeg Center
Fri 08:13:29 AM 50.3667 -104.8500 270° West 150 173 6,000  Level Winnipeg Center
Fri 08:14:29 AM 50.3500 -104.9167 249° West 180 207 6,000  Level Winnipeg Center
Fri 08:15:29 AM 50.3667 -105.0000 287° West 180 207 6,000  Level Winnipeg Center
Fri 08:16:29 AM 50.3667 -105.0833 270° West 180 207 6,000  Level Winnipeg Center
Fri 08:17:29 AM 50.3667 -105.1667 270° West 180 207 6,000  Level Winnipeg Center
Fri 08:18:29 AM 50.3667 -105.2333 270° West 180 207 6,000  Level Winnipeg Center
Fri 08:19:29 AM 50.3667 -105.3167 270° West 180 207 6,000  Level Winnipeg Center
Fri 08:20:29 AM 50.3500 -105.4000 253° West 180 207 6,000  Level Winnipeg Center
Fri 08:21:29 AM 50.3500 -105.4833 270° West 180 207 6,000  Level Winnipeg Center
Fri 08:22:29 AM 50.3500 -105.5500 270° West 180 207 6,000  Level Winnipeg Center
Fri 08:23:29 AM 50.3333 -105.6000 242° Southwest 180 207 6,000  Level Winnipeg Center
Fri 08:24:29 AM 50.3500 -105.7167 283° West 180 207 6,000  Level Winnipeg Center
Fri 08:25:29 AM 50.3500 -105.7833 270° West 180 207 6,000  Level Winnipeg Center
Fri 08:26:29 AM 50.3333 -105.8667 253° West 180 207 6,000  Level Winnipeg Center
Fri 08:27:29 AM 50.3333 -105.9500 270° West 180 207 6,000  Level Winnipeg Center
Fri 08:28:29 AM 50.3333 -106.0167 270° West 180 207 6,000 -50 Level Winnipeg Center
Fri 08:29:29 AM 50.3333 -106.1000 270° West 180 207 5,900 -50 Descending Winnipeg Center
Fri 08:30:29 AM 50.3333 -106.1500 270° West 180 207 5,900  Level Winnipeg Center
Fri 08:31:29 AM 50.3500 -106.2333 287° West 180 207 5,900  Level Winnipeg Center
Fri 08:32:29 AM 50.3333 -106.3167 253° West 180 207 5,900  Level Winnipeg Center
Fri 08:33:29 AM 50.3333 -106.4000 270° West 180 207 5,900  Level Winnipeg Center
Fri 08:34:29 AM 50.3167 -106.4667 249° West 180 207 5,900  Level Winnipeg Center
Fri 08:35:29 AM 50.3167 -106.5500 270° West 180 207 5,900  Level Winnipeg Center
Fri 08:36:29 AM 50.3167 -106.6333 270° West 180 207 5,900  Level Winnipeg Center
Fri 08:37:29 AM 50.3167 -106.7000 270° West 180 207 5,900  Level Winnipeg Center
Fri 08:38:29 AM 50.3167 -106.7833 270° West 180 207 5,900  Level Winnipeg Center
Fri 08:39:29 AM 50.3000 -106.8667 253° West 180 207 5,900  Level Winnipeg Center
Fri 08:40:29 AM 50.3167 -106.9500 287° West 180 207 5,900  Level Winnipeg Center
Fri 08:41:29 AM 50.3167 -107.0167 270° West 180 207 5,900 -50 Level Winnipeg Center
Fri 08:42:29 AM 50.3000 -107.1000 253° West 180 207 5,800 -150 Descending Winnipeg Center
Fri 08:43:29 AM 50.3000 -107.1833 270° West 180 207 5,600 -150 Descending Winnipeg Center
Fri 08:44:29 AM 50.2833 -107.2500 249° West 180 207 5,500 -100 Descending Winnipeg Center
Fri 08:46:00 AM 50.3000 -107.3604 270° West  Level FlightAware Approximate
Fri 08:53:00 AM 50.2833 -107.6833 265° West  Level FlightAware Approximate
Fri 08:54:00 AM 50.2919 -107.6906 265° West  Level Estimated
Fri 08:55:00 AM 50.2919 -107.6906 265° West  Level Estimated
Fri 08:56:00 AM 50.2919 -107.6906 265° West  Level Estimated
Fri 08:57:00 AM 50.2919 -107.6906 265° West  Level Estimated
Fri 08:58:00 AM 50.2919 -107.6906 265° West  Level Estimated

Login

Don't have an account? Register now (free) for customized features, flight alerts, and more!